createdAt,value
2018-04-12T00:01:40.377Z,77.37
2018-04-12T00:04:07.890Z,75.84
2018-04-12T00:06:35.389Z,76.00
2018-04-12T00:09:02.877Z,75.40
2018-04-12T00:11:30.556Z,77.49
2018-04-12T00:13:58.046Z,77.21
2018-04-12T00:16:25.551Z,75.93
2018-04-12T00:18:53.073Z,77.28
2018-04-12T00:21:20.568Z,77.24
2018-04-12T00:23:48.317Z,78.20
2018-04-12T00:26:15.793Z,77.97
2018-04-12T00:28:43.269Z,76.78
2018-04-12T00:31:10.793Z,78.52
2018-04-12T00:33:38.277Z,79.15
2018-04-12T00:36:05.817Z,76.77
2018-04-12T00:38:33.309Z,77.30
2018-04-12T00:41:00.785Z,77.39
2018-04-12T00:43:28.303Z,77.27
2018-04-12T00:45:55.793Z,76.99
2018-04-12T00:48:23.336Z,76.78
2018-04-12T00:50:50.821Z,77.05
2018-04-12T00:53:30.163Z,76.77
2018-04-12T00:55:57.646Z,77.23
2018-04-12T00:58:25.141Z,76.38
2018-04-12T01:00:52.646Z,76.91
2018-04-12T01:03:20.141Z,77.54
2018-04-12T01:05:47.909Z,78.09
2018-04-12T01:08:15.390Z,77.70
2018-04-12T01:10:42.893Z,77.83
2018-04-12T01:13:10.397Z,77.84
2018-04-12T01:15:37.877Z,78.72
2018-04-12T01:18:05.569Z,79.83
2018-04-12T01:20:33.057Z,79.47
2018-04-12T01:23:00.544Z,78.99
2018-04-12T01:25:28.050Z,78.47
2018-04-12T01:27:55.537Z,79.67
2018-04-12T01:30:23.066Z,79.09
2018-04-12T01:33:02.458Z,79.46
2018-04-12T01:35:30.337Z,78.68
2018-04-12T01:37:57.860Z,79.11
2018-04-12T01:40:25.341Z,78.75
2018-04-12T01:42:52.851Z,78.78
2018-04-12T01:45:20.370Z,79.10
2018-04-12T01:47:47.905Z,79.00
2018-04-12T01:50:15.396Z,78.39
2018-04-12T01:52:42.873Z,78.62
2018-04-12T01:55:10.389Z,77.98
2018-04-12T01:57:37.891Z,77.62
2018-04-12T02:00:05.681Z,77.81
2018-04-12T02:02:33.232Z,77.49
2018-04-12T02:05:00.721Z,78.59
2018-04-12T02:07:28.248Z,77.85
2018-04-12T02:09:55.759Z,78.51
2018-04-12T02:12:23.409Z,78.02
2018-04-12T02:14:50.893Z,79.06
2018-04-12T02:17:18.396Z,77.72
2018-04-12T02:19:45.901Z,77.90
2018-04-12T02:22:13.381Z,78.32
2018-04-12T02:24:41.173Z,78.58
2018-04-12T02:27:08.657Z,78.63
2018-04-12T02:29:36.153Z,78.51
2018-04-12T02:32:03.656Z,78.49
2018-04-12T02:34:31.142Z,78.08
2018-04-12T02:36:58.849Z,78.38
2018-04-12T02:39:26.336Z,79.05
2018-04-12T02:41:53.829Z,79.16
2018-04-12T02:44:21.346Z,79.39
2018-04-12T02:46:48.857Z,79.35
2018-04-12T02:49:16.378Z,79.45
2018-04-12T02:51:43.868Z,79.63
2018-04-12T02:54:11.361Z,79.77
2018-04-12T02:56:38.868Z,79.87
2018-04-12T02:59:06.357Z,80.70
2018-04-12T03:01:33.885Z,80.31
2018-04-12T03:04:01.362Z,79.99
2018-04-12T03:06:28.863Z,81.04
2018-04-12T03:08:56.381Z,81.53
2018-04-12T03:11:23.871Z,82.21
2018-04-12T03:13:51.429Z,81.38
2018-04-12T03:16:18.908Z,80.73
2018-04-12T03:18:46.426Z,80.68
2018-04-12T03:21:13.942Z,80.82
2018-04-12T03:23:41.458Z,81.13
2018-04-12T03:26:09.349Z,80.85
2018-04-12T03:28:36.847Z,80.60
2018-04-12T03:31:04.345Z,81.73
2018-04-12T03:33:31.869Z,80.67
2018-04-12T03:35:59.362Z,79.77
2018-04-12T03:38:27.093Z,80.43
2018-04-12T03:40:54.588Z,80.32
2018-04-12T03:43:22.077Z,81.48
2018-04-12T03:45:49.597Z,82.40
2018-04-12T03:48:17.086Z,83.73
2018-04-12T03:50:44.621Z,82.80
2018-04-12T03:53:12.149Z,82.97
2018-04-12T03:55:39.730Z,82.31
2018-04-12T03:58:07.245Z,82.55
2018-04-12T04:00:34.744Z,83.29
2018-04-12T04:03:02.230Z,81.92
2018-04-12T04:05:29.764Z,82.61
2018-04-12T04:07:57.284Z,83.06
2018-04-12T04:10:24.773Z,82.53
2018-04-12T04:12:52.427Z,81.89
2018-04-12T04:15:31.883Z,82.13
2018-04-12T04:18:12.300Z,83.46
2018-04-12T04:20:51.752Z,83.10
2018-04-12T04:23:19.665Z,82.56
2018-04-12T04:25:47.155Z,83.81
2018-04-12T04:28:14.650Z,85.08
2018-04-12T04:30:42.160Z,85.43
2018-04-12T04:33:09.653Z,85.19
2018-04-12T04:35:37.646Z,85.71
2018-04-12T04:38:05.981Z,86.13
2018-04-12T04:40:33.475Z,85.94
2018-04-12T04:43:01.009Z,85.55
2018-04-12T04:45:28.506Z,85.63
2018-04-12T04:47:56.038Z,85.73
2018-04-12T04:50:23.533Z,85.92
2018-04-12T04:52:51.017Z,85.65
2018-04-12T04:55:18.531Z,85.70
2018-04-12T04:57:46.054Z,86.12
2018-04-12T05:00:13.703Z,86.81
2018-04-12T05:02:42.468Z,86.79
2018-04-12T05:05:10.063Z,86.62
2018-04-12T05:07:37.541Z,86.88
2018-04-12T05:10:05.036Z,86.74
2018-04-12T05:12:32.747Z,86.91
2018-04-12T05:15:00.261Z,86.85
2018-04-12T05:17:27.773Z,87.03
2018-04-12T05:19:55.290Z,87.08
2018-04-12T05:22:22.773Z,86.47
2018-04-12T05:24:50.507Z,86.49
2018-04-12T05:27:18.001Z,86.28
2018-04-12T05:29:45.492Z,86.46
2018-04-12T05:32:13.001Z,86.62
2018-04-12T05:34:40.489Z,86.67
2018-04-12T05:37:08.017Z,86.38
2018-04-12T05:39:35.500Z,86.40
2018-04-12T05:42:02.993Z,86.50
2018-04-12T05:44:30.504Z,86.48
2018-04-12T05:46:58.021Z,86.54
2018-04-12T05:49:25.546Z,86.42
2018-04-12T05:51:53.029Z,86.58
2018-04-12T05:54:20.683Z,86.61
2018-04-12T05:56:48.194Z,85.96
2018-04-12T05:59:15.686Z,85.54
2018-04-12T06:01:43.210Z,86.05
2018-04-12T06:04:10.760Z,86.29
2018-04-12T06:06:38.254Z,86.75
2018-04-12T06:09:05.773Z,87.26
2018-04-12T06:11:34.632Z,87.37
2018-04-12T06:14:02.301Z,87.06
2018-04-12T06:16:29.785Z,87.78
2018-04-12T06:18:57.269Z,87.65
2018-04-12T06:21:24.785Z,87.00
2018-04-12T06:23:52.285Z,86.78
2018-04-12T06:26:19.862Z,86.68
2018-04-12T06:28:47.385Z,85.73
2018-04-12T06:31:14.869Z,85.42
2018-04-12T06:33:42.418Z,84.81
2018-04-12T06:36:09.914Z,84.16
2018-04-12T06:38:37.569Z,83.75
2018-04-12T06:41:05.059Z,82.64
2018-04-12T06:43:32.545Z,80.81
2018-04-12T06:46:00.054Z,80.14
2018-04-12T06:48:27.566Z,77.82
2018-04-12T06:50:55.324Z,76.36
2018-04-12T06:53:22.849Z,75.87
2018-04-12T06:55:50.334Z,74.34
2018-04-12T06:58:17.845Z,74.47
2018-04-12T07:00:45.328Z,74.11
2018-04-12T07:03:12.866Z,72.68
2018-04-12T07:05:40.365Z,72.75
2018-04-12T07:08:07.861Z,72.11
2018-04-12T07:10:35.382Z,70.91
2018-04-12T07:13:02.872Z,71.26
2018-04-12T07:15:30.547Z,69.80
2018-04-12T07:17:58.033Z,68.84
2018-04-12T07:20:25.525Z,70.61
2018-04-12T07:22:53.041Z,70.32
2018-04-12T07:25:20.521Z,70.03
2018-04-12T07:27:48.497Z,68.84
2018-04-12T07:30:15.978Z,69.00
2018-04-12T07:35:10.271Z,69.79
2018-04-12T07:37:37.795Z,68.74
2018-04-12T07:40:05.445Z,68.90
2018-04-12T07:42:33.747Z,67.45
2018-04-12T07:45:01.321Z,66.46
2018-04-12T07:47:28.837Z,67.40
2018-04-12T07:49:56.329Z,66.30
2018-04-12T07:52:24.117Z,66.43
2018-04-12T07:54:51.608Z,65.88
2018-04-12T07:57:19.094Z,66.03
2018-04-12T07:59:46.639Z,66.14
2018-04-12T08:02:14.153Z,65.62
2018-04-12T08:04:41.700Z,65.03
2018-04-12T08:07:09.185Z,65.78
2018-04-12T08:09:36.673Z,65.09
2018-04-12T08:12:04.205Z,64.41
2018-04-12T08:14:31.693Z,65.14
2018-04-12T08:16:59.312Z,63.47
2018-04-12T08:19:26.797Z,64.33
2018-04-12T08:21:54.309Z,64.23
2018-04-12T08:24:21.828Z,63.12
2018-04-12T08:26:49.317Z,63.22
2018-04-12T08:29:16.849Z,62.57
2018-04-12T08:31:44.346Z,62.01
2018-04-12T08:34:11.837Z,62.18
2018-04-12T08:36:39.356Z,61.82
2018-04-12T08:39:06.853Z,61.83
2018-04-12T08:41:34.698Z,61.87
2018-04-12T08:44:02.201Z,60.72
2018-04-12T08:46:29.692Z,60.39
2018-04-12T08:48:57.213Z,61.42
2018-04-12T08:51:24.697Z,60.03
2018-04-12T08:53:52.501Z,58.80
2018-04-12T08:56:20.014Z,58.45
2018-04-12T08:58:47.505Z,58.94
2018-04-12T09:01:15.052Z,58.51
2018-04-12T09:03:42.533Z,58.10
2018-04-12T09:06:10.581Z,58.51
2018-04-12T09:08:38.097Z,56.99
2018-04-12T09:11:05.593Z,56.74
2018-04-12T09:13:33.101Z,57.88
2018-04-12T09:16:00.585Z,56.39
2018-04-12T09:18:28.243Z,55.90
2018-04-12T09:20:55.769Z,55.71
2018-04-12T09:23:23.279Z,55.68
2018-04-12T09:25:50.850Z,56.68
2018-04-12T09:28:18.338Z,57.27
2018-04-12T09:30:45.874Z,57.07
2018-04-12T09:33:13.378Z,56.28
2018-04-12T09:35:40.877Z,55.57
2018-04-12T09:38:08.409Z,55.48
2018-04-12T09:40:35.898Z,56.10
2018-04-12T09:43:03.441Z,56.93
2018-04-12T09:45:30.933Z,57.67
2018-04-12T09:47:58.449Z,58.52
2018-04-12T09:50:25.975Z,57.74
2018-04-12T09:52:53.465Z,56.96
2018-04-12T09:55:21.197Z,56.26
2018-04-12T09:57:48.691Z,55.09
2018-04-12T10:00:16.192Z,54.89
2018-04-12T10:02:49.422Z,54.51
2018-04-12T10:05:22.441Z,55.16
2018-04-12T10:07:51.887Z,55.07
2018-04-12T10:10:19.376Z,54.77
2018-04-12T10:12:46.953Z,55.70
2018-04-12T10:15:14.452Z,54.93
2018-04-12T10:17:41.932Z,55.49
2018-04-12T10:20:09.445Z,54.51
2018-04-12T10:22:36.934Z,53.59
2018-04-12T10:25:04.681Z,54.29
2018-04-12T10:27:32.166Z,54.65
2018-04-12T10:29:59.657Z,54.46
2018-04-12T10:32:27.164Z,54.07
2018-04-12T10:34:54.653Z,53.17
2018-04-12T10:37:22.417Z,51.79
2018-04-12T10:39:49.911Z,52.50
2018-04-12T10:42:17.397Z,52.35
2018-04-12T10:44:44.920Z,52.09
2018-04-12T10:47:12.409Z,52.07
2018-04-12T10:49:40.177Z,52.48
2018-04-12T10:52:07.656Z,52.25
2018-04-12T10:54:35.188Z,52.77
2018-04-12T10:57:02.720Z,52.06
2018-04-12T10:59:30.209Z,51.89
2018-04-12T11:01:57.949Z,51.21
2018-04-12T11:04:25.437Z,51.67
2018-04-12T11:06:52.950Z,50.24
2018-04-12T11:09:20.493Z,51.12
2018-04-12T11:11:47.977Z,51.17
2018-04-12T11:14:15.529Z,51.58
2018-04-12T11:16:43.018Z,50.94
2018-04-12T11:19:10.502Z,51.73
2018-04-12T11:21:38.016Z,52.36
2018-04-12T11:24:05.506Z,51.30
2018-04-12T11:26:33.182Z,51.32
2018-04-12T11:29:00.673Z,51.75
2018-04-12T11:31:28.204Z,52.50
2018-04-12T11:33:55.705Z,51.44
2018-04-12T11:36:23.195Z,51.46
2018-04-12T11:38:50.762Z,51.70
2018-04-12T11:41:18.285Z,51.38
2018-04-12T11:43:45.805Z,52.01
2018-04-12T11:46:13.331Z,52.18
2018-04-12T11:48:40.837Z,51.48
2018-04-12T11:51:08.687Z,52.13
2018-04-12T11:53:36.572Z,51.32
2018-04-12T11:56:04.125Z,52.10
2018-04-12T11:58:31.628Z,51.62
2018-04-12T12:00:59.138Z,51.91
2018-04-12T12:03:26.659Z,51.99
2018-04-12T12:05:54.182Z,51.44
2018-04-12T12:08:21.676Z,51.37
2018-04-12T12:10:49.186Z,51.13
2018-04-12T12:13:16.673Z,51.81
2018-04-12T12:15:44.221Z,51.46
2018-04-12T12:18:11.733Z,51.34
2018-04-12T12:20:39.264Z,51.80
2018-04-12T12:23:06.779Z,52.55
2018-04-12T12:25:34.265Z,52.52
2018-04-12T12:28:01.774Z,52.32
2018-04-12T12:30:29.265Z,52.60
2018-04-12T12:32:56.834Z,52.18
2018-04-12T12:35:24.330Z,52.02
2018-04-12T12:37:51.822Z,53.09
2018-04-12T12:40:19.337Z,52.48
2018-04-12T12:42:46.929Z,53.33
2018-04-12T12:45:14.643Z,53.31
2018-04-12T12:47:42.199Z,52.76
2018-04-12T12:50:09.709Z,52.66
2018-04-12T12:52:37.237Z,52.75
2018-04-12T12:55:04.734Z,51.96
2018-04-12T12:57:32.261Z,52.23
2018-04-12T12:59:59.757Z,51.57
2018-04-12T13:02:27.286Z,51.09
2018-04-12T13:04:54.775Z,50.03
2018-04-12T13:07:22.304Z,49.85
2018-04-12T13:09:49.809Z,49.54
2018-04-12T13:12:17.293Z,49.53
2018-04-12T13:14:44.805Z,48.29
2018-04-12T13:17:12.305Z,48.10
2018-04-12T13:19:40.242Z,48.78
2018-04-12T13:22:07.741Z,48.44
2018-04-12T13:24:35.240Z,48.84
2018-04-12T13:27:02.766Z,47.79
2018-04-12T13:29:30.297Z,46.72
2018-04-12T13:31:57.973Z,46.84
2018-04-12T13:34:25.461Z,47.60
2018-04-12T13:36:52.954Z,47.46
2018-04-12T13:39:20.487Z,47.17
2018-04-12T13:41:48.007Z,47.28
2018-04-12T13:44:15.795Z,47.46
2018-04-12T13:46:43.289Z,47.64
2018-04-12T13:49:10.788Z,47.67
2018-04-12T13:51:38.305Z,47.39
2018-04-12T13:54:05.797Z,46.96
2018-04-12T13:56:33.340Z,47.26
2018-04-12T13:59:00.829Z,47.53
2018-04-12T14:01:28.327Z,46.85
2018-04-12T14:03:55.844Z,46.66
2018-04-12T14:06:23.349Z,46.95
2018-04-12T14:08:51.272Z,46.33
2018-04-12T14:11:18.809Z,46.44
2018-04-12T14:13:46.281Z,47.25
2018-04-12T14:16:13.808Z,46.47
2018-04-12T14:18:41.286Z,46.51
2018-04-12T14:21:08.785Z,47.06
2018-04-12T14:23:36.286Z,46.24
2018-04-12T14:26:03.761Z,45.02
2018-04-12T14:28:31.273Z,44.77
2018-04-12T14:30:59.009Z,45.35
2018-04-12T14:33:26.513Z,45.66
2018-04-12T14:35:54.054Z,45.29
2018-04-12T14:38:21.574Z,44.94
2018-04-12T14:40:49.085Z,43.92
2018-04-12T14:43:16.605Z,44.09
2018-04-12T14:45:44.088Z,44.12
2018-04-12T14:48:11.578Z,43.82
2018-04-12T14:50:39.081Z,43.99
2018-04-12T14:53:06.593Z,43.79
2018-04-12T14:55:34.101Z,43.66
2018-04-12T14:58:01.641Z,43.12
2018-04-12T15:00:29.251Z,42.89
2018-04-12T15:02:56.767Z,43.72
2018-04-12T15:05:24.277Z,44.16
2018-04-12T15:07:51.758Z,43.83
2018-04-12T15:10:19.271Z,43.55
2018-04-12T15:12:46.820Z,44.62
2018-04-12T15:15:14.309Z,44.42
2018-04-12T15:17:41.791Z,44.74
2018-04-12T15:20:09.652Z,45.47
2018-04-12T15:22:37.136Z,43.97
2018-04-12T15:25:04.641Z,44.73
2018-04-12T15:27:32.353Z,45.00
2018-04-12T15:29:59.993Z,45.07
2018-04-12T15:32:27.478Z,44.69
2018-04-12T15:34:56.960Z,45.10
2018-04-12T15:37:28.385Z,46.49
2018-04-12T15:39:56.977Z,45.95
2018-04-12T15:42:26.061Z,46.88
2018-04-12T15:44:57.165Z,46.50
2018-04-12T15:47:24.881Z,46.93
2018-04-12T15:49:53.611Z,47.36
2018-04-12T15:52:21.149Z,47.28
2018-04-12T15:54:48.628Z,47.61
2018-04-12T15:57:16.325Z,47.78
2018-04-12T15:59:43.805Z,48.10
2018-04-12T16:02:11.301Z,47.92
2018-04-12T16:04:38.806Z,48.30
2018-04-12T16:07:06.292Z,48.08
2018-04-12T16:09:33.918Z,47.27
2018-04-12T16:12:01.400Z,47.39
2018-04-12T16:14:28.944Z,46.02
2018-04-12T16:16:56.482Z,46.49
2018-04-12T16:19:24.005Z,46.57
2018-04-12T16:21:51.522Z,46.22
2018-04-12T16:24:19.029Z,47.18
2018-04-12T16:26:46.601Z,45.58
2018-04-12T16:29:14.114Z,45.58
2018-04-12T16:31:41.832Z,46.23
2018-04-12T16:34:09.341Z,45.91
2018-04-12T16:36:36.863Z,46.10
2018-04-12T16:39:04.355Z,45.84
2018-04-12T16:41:31.883Z,46.63
2018-04-12T16:43:59.415Z,46.20
2018-04-12T16:46:26.983Z,46.90
2018-04-12T16:48:56.581Z,47.22
2018-04-12T16:51:24.441Z,47.57
2018-04-12T16:53:52.035Z,47.49
2018-04-12T16:56:19.571Z,47.68
2018-04-12T16:58:47.070Z,47.98
2018-04-12T17:01:14.549Z,48.85
2018-04-12T17:03:42.091Z,48.76
2018-04-12T17:06:10.240Z,48.06
2018-04-12T17:08:37.902Z,48.57
2018-04-12T17:11:05.450Z,48.63
2018-04-12T17:13:33.066Z,49.12
2018-04-12T17:16:00.624Z,49.74
2018-04-12T17:18:28.109Z,49.11
2018-04-12T17:20:55.627Z,49.30
2018-04-12T17:23:23.133Z,49.85
2018-04-12T17:25:50.997Z,49.28
2018-04-12T17:28:18.474Z,49.51
2018-04-12T17:30:45.953Z,49.33
2018-04-12T17:33:13.514Z,50.72
2018-04-12T17:35:41.005Z,52.23
2018-04-12T17:38:08.574Z,51.78
2018-04-12T17:40:36.080Z,52.66
2018-04-12T17:43:03.571Z,53.44
2018-04-12T17:45:31.109Z,52.97
2018-04-12T17:47:58.665Z,53.13
2018-04-12T17:50:26.423Z,51.76
2018-04-12T17:52:53.956Z,52.30
2018-04-12T17:55:21.469Z,53.31
2018-04-12T17:57:49.014Z,54.40
2018-04-12T18:00:16.525Z,53.22
2018-04-12T18:02:44.352Z,52.61
2018-04-12T18:05:11.948Z,54.72
2018-04-12T18:07:39.445Z,55.17
2018-04-12T18:10:07.675Z,55.14
2018-04-12T18:12:36.993Z,56.07
2018-04-12T18:15:05.231Z,55.91
2018-04-12T18:17:33.206Z,58.16
2018-04-12T18:20:01.041Z,58.33
2018-04-12T18:22:29.131Z,59.65
2018-04-12T18:24:57.145Z,61.01
2018-04-12T18:27:25.922Z,61.25
2018-04-12T18:29:55.855Z,61.31
2018-04-12T18:32:26.116Z,61.88
2018-04-12T18:34:54.195Z,62.57
2018-04-12T18:37:25.482Z,62.96
2018-04-12T18:39:53.854Z,64.32
2018-04-12T18:42:23.261Z,65.13
2018-04-12T18:44:52.668Z,64.93
2018-04-12T18:47:20.330Z,65.22
2018-04-12T18:49:48.340Z,65.01
2018-04-12T18:52:15.897Z,65.20
2018-04-12T18:54:44.714Z,66.14
2018-04-12T18:57:12.798Z,67.49
2018-04-12T18:59:41.302Z,67.69
2018-04-12T19:02:09.709Z,67.90
2018-04-12T19:04:37.692Z,67.89
2018-04-12T19:07:06.300Z,68.69
2018-04-12T19:09:35.285Z,69.29
2018-04-12T19:12:03.597Z,69.31
2018-04-12T19:14:31.888Z,69.27
2018-04-12T19:17:00.160Z,69.41
2018-04-12T19:19:28.138Z,69.56
2018-04-12T19:21:56.206Z,69.17
2018-04-12T19:24:24.394Z,69.88
2018-04-12T19:26:52.881Z,69.63
2018-04-12T19:29:21.218Z,69.75
2018-04-12T19:31:49.475Z,69.47
2018-04-12T19:34:17.951Z,70.29
2018-04-12T19:36:46.660Z,69.77
2018-04-12T19:39:14.539Z,69.91
2018-04-12T19:41:42.903Z,70.77
2018-04-12T19:44:10.916Z,71.49
2018-04-12T19:46:38.999Z,71.06
2018-04-12T19:49:06.863Z,71.97
2018-04-12T19:51:35.066Z,71.41
2018-04-12T19:54:03.338Z,71.98
2018-04-12T19:56:31.441Z,72.68
2018-04-12T19:58:59.726Z,72.87
2018-04-12T20:01:28.222Z,73.53
2018-04-12T20:03:56.071Z,73.19
2018-04-12T20:06:24.312Z,72.90
2018-04-12T20:08:52.260Z,72.90
2018-04-12T20:11:19.932Z,72.64
2018-04-12T20:13:47.736Z,73.37
2018-04-12T20:16:15.461Z,73.51
2018-04-12T20:18:43.387Z,73.94
2018-04-12T20:21:11.146Z,73.40
2018-04-12T20:23:39.209Z,73.38
2018-04-12T20:26:06.730Z,73.23
2018-04-12T20:28:34.236Z,72.85
2018-04-12T20:31:01.759Z,73.69
2018-04-12T20:33:29.241Z,74.13
2018-04-12T20:35:56.956Z,74.44
2018-04-12T20:38:24.454Z,74.89
2018-04-12T20:40:51.949Z,75.22
2018-04-12T20:43:19.465Z,75.81
2018-04-12T20:45:46.961Z,76.27
2018-04-12T20:48:14.496Z,76.56
2018-04-12T20:50:41.973Z,76.04
2018-04-12T20:53:09.473Z,75.12
2018-04-12T20:55:36.982Z,74.63
2018-04-12T20:58:04.507Z,74.71
2018-04-12T21:00:32.177Z,76.37
2018-04-12T21:02:59.656Z,76.26
2018-04-12T21:05:27.167Z,76.27
2018-04-12T21:07:54.673Z,76.66
2018-04-12T21:10:22.148Z,76.70
2018-04-12T21:12:49.701Z,76.12
2018-04-12T21:15:17.193Z,76.52
2018-04-12T21:17:44.677Z,76.11
2018-04-12T21:20:12.185Z,77.21
2018-04-12T21:22:39.667Z,77.79
2018-04-12T21:25:07.381Z,78.25
2018-04-12T21:27:34.897Z,78.38
2018-04-12T21:30:02.381Z,77.63
2018-04-12T21:32:29.880Z,77.13
2018-04-12T21:34:57.364Z,77.08
2018-04-12T21:37:25.240Z,77.33
2018-04-12T21:39:52.741Z,77.32
2018-04-12T21:42:20.235Z,78.06
2018-04-12T21:44:47.737Z,77.44
2018-04-12T21:47:15.216Z,77.10
2018-04-12T21:49:42.944Z,78.21
2018-04-12T21:52:10.425Z,77.70
2018-04-12T21:54:37.901Z,77.29
2018-04-12T21:57:05.413Z,77.05
2018-04-12T21:59:32.917Z,77.98
2018-04-12T22:02:00.416Z,78.05
2018-04-12T22:04:27.892Z,78.11
2018-04-12T22:06:55.369Z,78.51
2018-04-12T22:09:22.880Z,78.09
2018-04-12T22:11:50.361Z,77.48
2018-04-12T22:14:17.848Z,79.68
2018-04-12T22:16:45.397Z,78.77
2018-04-12T22:19:12.881Z,77.95
2018-04-12T22:21:40.378Z,77.87
2018-04-12T22:24:07.916Z,77.78
2018-04-12T22:26:35.413Z,78.06
2018-04-12T22:29:02.895Z,80.66
2018-04-12T22:31:30.398Z,79.55
2018-04-12T22:33:57.910Z,80.28
2018-04-12T22:36:25.389Z,80.42
2018-04-12T22:38:53.105Z,79.85
2018-04-12T22:41:20.642Z,79.42
2018-04-12T22:43:48.136Z,79.18
2018-04-12T22:46:15.649Z,78.71
2018-04-12T22:48:43.139Z,79.09
2018-04-12T22:51:10.632Z,79.57
2018-04-12T22:53:38.280Z,80.11
2018-04-12T22:56:05.755Z,80.74
2018-04-12T22:58:33.236Z,80.60
2018-04-12T23:01:01.063Z,79.43
2018-04-12T23:03:28.542Z,79.64
2018-04-12T23:05:56.049Z,81.12
2018-04-12T23:08:23.583Z,81.18
2018-04-12T23:10:51.056Z,81.80
2018-04-12T23:13:18.547Z,82.32
2018-04-12T23:15:46.049Z,81.96
2018-04-12T23:18:13.525Z,81.69
2018-04-12T23:20:41.040Z,81.02
2018-04-12T23:23:08.512Z,82.02
2018-04-12T23:25:35.989Z,81.65
2018-04-12T23:28:03.514Z,82.33
2018-04-12T23:30:30.986Z,82.41
2018-04-12T23:32:58.665Z,82.30
2018-04-12T23:35:26.141Z,82.20
2018-04-12T23:37:53.613Z,81.45
2018-04-12T23:40:21.134Z,80.83
2018-04-12T23:42:48.622Z,81.36
2018-04-12T23:45:16.158Z,82.50
2018-04-12T23:47:43.642Z,81.14
2018-04-12T23:50:11.125Z,81.45
2018-04-12T23:52:38.652Z,80.92
2018-04-12T23:55:06.125Z,80.53
2018-04-12T23:57:33.661Z,81.27
